sensor_id;sensor_type;location;lat;lon;timestamp;temperature;humidity
41838;DHT22;27511;52.042;5.178;2023-10-09T00:00:12;18.30;99.90
41838;DHT22;27511;52.042;5.178;2023-10-09T00:02:57;18.30;99.90
41838;DHT22;27511;52.042;5.178;2023-10-09T00:05:30;18.30;99.90
41838;DHT22;27511;52.042;5.178;2023-10-09T00:08:04;18.20;99.90
41838;DHT22;27511;52.042;5.178;2023-10-09T00:10:30;18.30;99.90
41838;DHT22;27511;52.042;5.178;2023-10-09T00:13:13;18.30;99.90
41838;DHT22;27511;52.042;5.178;2023-10-09T00:15:39;18.30;99.90
41838;DHT22;27511;52.042;5.178;2023-10-09T00:18:06;18.30;99.90
41838;DHT22;27511;52.042;5.178;2023-10-09T00:20:38;18.40;99.90
41838;DHT22;27511;52.042;5.178;2023-10-09T00:23:09;18.30;99.90
41838;DHT22;27511;52.042;5.178;2023-10-09T00:25:54;18.50;99.90
41838;DHT22;27511;52.042;5.178;2023-10-09T00:28:38;18.40;99.90
41838;DHT22;27511;52.042;5.178;2023-10-09T00:31:07;18.40;99.90
41838;DHT22;27511;52.042;5.178;2023-10-09T00:33:36;18.40;99.90
41838;DHT22;27511;52.042;5.178;2023-10-09T00:36:05;18.40;99.90
41838;DHT22;27511;52.042;5.178;2023-10-09T00:38:44;18.50;99.90
41838;DHT22;27511;52.042;5.178;2023-10-09T00:41:17;18.50;99.90
41838;DHT22;27511;52.042;5.178;2023-10-09T00:43:47;18.50;99.90
41838;DHT22;27511;52.042;5.178;2023-10-09T00:46:18;18.50;99.90
41838;DHT22;27511;52.042;5.178;2023-10-09T00:48:48;18.60;99.90
41838;DHT22;27511;52.042;5.178;2023-10-09T00:51:15;18.50;99.90
41838;DHT22;27511;52.042;5.178;2023-10-09T00:53:46;18.60;99.90
41838;DHT22;27511;52.042;5.178;2023-10-09T00:56:17;18.60;99.90
41838;DHT22;27511;52.042;5.178;2023-10-09T00:59:01;18.60;99.90
41838;DHT22;27511;52.042;5.178;2023-10-09T01:01:45;18.70;99.90
41838;DHT22;27511;52.042;5.178;2023-10-09T01:04:24;18.60;99.90
41838;DHT22;27511;52.042;5.178;2023-10-09T01:06:51;18.70;99.90
41838;DHT22;27511;52.042;5.178;2023-10-09T01:09:33;18.60;99.90
41838;DHT22;27511;52.042;5.178;2023-10-09T01:12:04;18.80;99.90
41838;DHT22;27511;52.042;5.178;2023-10-09T01:14:30;18.70;99.90
41838;DHT22;27511;52.042;5.178;2023-10-09T01:17:02;18.70;99.90
41838;DHT22;27511;52.042;5.178;2023-10-09T01:19:28;18.80;99.90
41838;DHT22;27511;52.042;5.178;2023-10-09T01:21:54;18.80;99.90
41838;DHT22;27511;52.042;5.178;2023-10-09T01:24:20;18.80;99.90
41838;DHT22;27511;52.042;5.178;2023-10-09T01:26:46;18.80;99.90
41838;DHT22;27511;52.042;5.178;2023-10-09T01:31:45;18.80;99.90
41838;DHT22;27511;52.042;5.178;2023-10-09T01:34:20;18.80;99.90
41838;DHT22;27511;52.042;5.178;2023-10-09T01:36:53;18.90;99.90
41838;DHT22;27511;52.042;5.178;2023-10-09T01:39:25;19.00;99.90
41838;DHT22;27511;52.042;5.178;2023-10-09T01:41:54;19.00;99.90
41838;DHT22;27511;52.042;5.178;2023-10-09T01:44:31;19.10;99.90
41838;DHT22;27511;52.042;5.178;2023-10-09T01:47:04;19.10;99.90
41838;DHT22;27511;52.042;5.178;2023-10-09T01:49:34;19.10;99.90
41838;DHT22;27511;52.042;5.178;2023-10-09T01:52:03;19.00;99.90
41838;DHT22;27511;52.042;5.178;2023-10-09T01:54:38;19.10;99.90
41838;DHT22;27511;52.042;5.178;2023-10-09T01:57:08;19.20;99.90
41838;DHT22;27511;52.042;5.178;2023-10-09T01:59:39;19.20;99.90
41838;DHT22;27511;52.042;5.178;2023-10-09T02:02:21;19.20;99.90
41838;DHT22;27511;52.042;5.178;2023-10-09T02:05:06;19.30;99.90
41838;DHT22;27511;52.042;5.178;2023-10-09T02:07:41;19.20;99.90
41838;DHT22;27511;52.042;5.178;2023-10-09T02:10:13;19.30;99.90
41838;DHT22;27511;52.042;5.178;2023-10-09T02:12:59;19.30;99.90
41838;DHT22;27511;52.042;5.178;2023-10-09T02:15:26;19.40;99.90
41838;DHT22;27511;52.042;5.178;2023-10-09T02:18:17;19.30;99.90
41838;DHT22;27511;52.042;5.178;2023-10-09T02:23:38;19.40;99.90
41838;DHT22;27511;52.042;5.178;2023-10-09T02:26:11;19.30;99.90
41838;DHT22;27511;52.042;5.178;2023-10-09T02:28:48;19.30;99.90
41838;DHT22;27511;52.042;5.178;2023-10-09T02:31:18;19.30;99.90
41838;DHT22;27511;52.042;5.178;2023-10-09T02:33:47;19.40;99.90
41838;DHT22;27511;52.042;5.178;2023-10-09T02:36:16;19.40;99.90
41838;DHT22;27511;52.042;5.178;2023-10-09T02:38:41;19.50;99.90
41838;DHT22;27511;52.042;5.178;2023-10-09T02:41:08;19.50;99.90
41838;DHT22;27511;52.042;5.178;2023-10-09T02:43:37;19.50;99.90
41838;DHT22;27511;52.042;5.178;2023-10-09T02:46:21;19.50;99.90
41838;DHT22;27511;52.042;5.178;2023-10-09T02:48:55;19.50;99.90
41838;DHT22;27511;52.042;5.178;2023-10-09T02:51:23;19.60;99.90
41838;DHT22;27511;52.042;5.178;2023-10-09T02:53:52;19.40;99.90
41838;DHT22;27511;52.042;5.178;2023-10-09T02:56:17;19.40;99.90
41838;DHT22;27511;52.042;5.178;2023-10-09T02:58:53;19.40;99.90
41838;DHT22;27511;52.042;5.178;2023-10-09T03:01:18;19.50;99.90
41838;DHT22;27511;52.042;5.178;2023-10-09T03:03:44;19.40;99.90
41838;DHT22;27511;52.042;5.178;2023-10-09T03:06:11;19.40;99.90
41838;DHT22;27511;52.042;5.178;2023-10-09T03:08:38;19.40;99.90
41838;DHT22;27511;52.042;5.178;2023-10-09T03:11:09;19.40;99.90
41838;DHT22;27511;52.042;5.178;2023-10-09T03:13:42;19.40;99.90
41838;DHT22;27511;52.042;5.178;2023-10-09T03:16:10;19.50;99.90
41838;DHT22;27511;52.042;5.178;2023-10-09T03:18:53;19.50;99.90
41838;DHT22;27511;52.042;5.178;2023-10-09T03:21:19;19.60;99.90
41838;DHT22;27511;52.042;5.178;2023-10-09T03:23:46;19.50;99.90
41838;DHT22;27511;52.042;5.178;2023-10-09T03:26:16;19.40;99.90
41838;DHT22;27511;52.042;5.178;2023-10-09T03:28:46;19.40;99.90
41838;DHT22;27511;52.042;5.178;2023-10-09T03:31:13;19.50;99.90
41838;DHT22;27511;52.042;5.178;2023-10-09T03:33:41;19.50;99.90
41838;DHT22;27511;52.042;5.178;2023-10-09T03:36:07;19.50;99.90
41838;DHT22;27511;52.042;5.178;2023-10-09T03:38:39;19.40;99.90
41838;DHT22;27511;52.042;5.178;2023-10-09T03:41:06;19.40;99.90
41838;DHT22;27511;52.042;5.178;2023-10-09T03:43:35;19.50;99.90
41838;DHT22;27511;52.042;5.178;2023-10-09T03:46:10;19.50;99.90
41838;DHT22;27511;52.042;5.178;2023-10-09T03:48:48;19.60;99.90
41838;DHT22;27511;52.042;5.178;2023-10-09T03:51:14;19.50;99.90
41838;DHT22;27511;52.042;5.178;2023-10-09T03:53:51;19.50;99.90
41838;DHT22;27511;52.042;5.178;2023-10-09T03:56:20;19.50;99.90
41838;DHT22;27511;52.042;5.178;2023-10-09T03:58:48;19.50;99.90
41838;DHT22;27511;52.042;5.178;2023-10-09T04:01:21;19.60;99.90
41838;DHT22;27511;52.042;5.178;2023-10-09T04:04:04;19.60;99.90
41838;DHT22;27511;52.042;5.178;2023-10-09T04:06:33;19.50;99.90
41838;DHT22;27511;52.042;5.178;2023-10-09T04:09:00;19.50;99.90
41838;DHT22;27511;52.042;5.178;2023-10-09T04:11:25;19.50;99.90
41838;DHT22;27511;52.042;5.178;2023-10-09T04:13:51;19.60;99.90
41838;DHT22;27511;52.042;5.178;2023-10-09T04:16:19;19.60;99.90
41838;DHT22;27511;52.042;5.178;2023-10-09T04:18:57;19.60;99.90
41838;DHT22;27511;52.042;5.178;2023-10-09T04:21:23;19.50;99.90
41838;DHT22;27511;52.042;5.178;2023-10-09T04:24:03;19.50;99.90
41838;DHT22;27511;52.042;5.178;2023-10-09T04:26:48;19.60;99.90
41838;DHT22;27511;52.042;5.178;2023-10-09T04:29:19;19.40;99.90
41838;DHT22;27511;52.042;5.178;2023-10-09T04:32:04;19.50;99.90
41838;DHT22;27511;52.042;5.178;2023-10-09T04:34:34;19.60;99.90
41838;DHT22;27511;52.042;5.178;2023-10-09T04:37:13;19.60;99.90
41838;DHT22;27511;52.042;5.178;2023-10-09T04:39:39;19.60;99.90
41838;DHT22;27511;52.042;5.178;2023-10-09T04:42:12;19.50;99.90
41838;DHT22;27511;52.042;5.178;2023-10-09T04:44:49;19.50;99.90
41838;DHT22;27511;52.042;5.178;2023-10-09T04:47:37;19.60;99.90
41838;DHT22;27511;52.042;5.178;2023-10-09T04:50:15;19.60;99.90
41838;DHT22;27511;52.042;5.178;2023-10-09T04:52:44;19.60;99.90
41838;DHT22;27511;52.042;5.178;2023-10-09T04:55:10;19.60;99.90
41838;DHT22;27511;52.042;5.178;2023-10-09T04:57:36;19.70;99.90
41838;DHT22;27511;52.042;5.178;2023-10-09T05:00:25;19.70;99.90
41838;DHT22;27511;52.042;5.178;2023-10-09T05:02:55;19.70;99.90
41838;DHT22;27511;52.042;5.178;2023-10-09T05:05:22;19.80;99.90
41838;DHT22;27511;52.042;5.178;2023-10-09T05:08:06;19.80;99.90
41838;DHT22;27511;52.042;5.178;2023-10-09T05:10:45;19.70;99.90
41838;DHT22;27511;52.042;5.178;2023-10-09T05:13:27;19.70;99.90
41838;DHT22;27511;52.042;5.178;2023-10-09T05:16:22;19.70;99.90
41838;DHT22;27511;52.042;5.178;2023-10-09T05:18:49;19.70;99.90
41838;DHT22;27511;52.042;5.178;2023-10-09T05:21:41;19.90;99.90
41838;DHT22;27511;52.042;5.178;2023-10-09T05:24:07;19.80;99.90
41838;DHT22;27511;52.042;5.178;2023-10-09T05:26:49;19.70;99.90
41838;DHT22;27511;52.042;5.178;2023-10-09T05:29:24;19.80;99.90
41838;DHT22;27511;52.042;5.178;2023-10-09T05:31:50;19.90;99.90
41838;DHT22;27511;52.042;5.178;2023-10-09T05:34:22;19.80;99.90
41838;DHT22;27511;52.042;5.178;2023-10-09T05:36:49;19.90;99.90
41838;DHT22;27511;52.042;5.178;2023-10-09T05:39:15;19.90;99.90
41838;DHT22;27511;52.042;5.178;2023-10-09T05:41:47;19.90;99.90
41838;DHT22;27511;52.042;5.178;2023-10-09T05:44:18;19.90;99.90
41838;DHT22;27511;52.042;5.178;2023-10-09T05:47:02;19.80;99.90
41838;DHT22;27511;52.042;5.178;2023-10-09T05:49:46;19.80;99.90
41838;DHT22;27511;52.042;5.178;2023-10-09T05:52:13;19.90;99.90
41838;DHT22;27511;52.042;5.178;2023-10-09T05:54:57;19.90;99.90
41838;DHT22;27511;52.042;5.178;2023-10-09T05:57:46;19.80;99.90
41838;DHT22;27511;52.042;5.178;2023-10-09T06:00:21;19.90;99.90
41838;DHT22;27511;52.042;5.178;2023-10-09T06:03:05;19.90;99.90
41838;DHT22;27511;52.042;5.178;2023-10-09T06:05:50;19.90;99.90
41838;DHT22;27511;52.042;5.178;2023-10-09T06:08:18;19.80;99.90
41838;DHT22;27511;52.042;5.178;2023-10-09T06:10:50;20.00;99.90
41838;DHT22;27511;52.042;5.178;2023-10-09T06:13:36;20.00;99.90
41838;DHT22;27511;52.042;5.178;2023-10-09T06:16:12;19.90;99.90
41838;DHT22;27511;52.042;5.178;2023-10-09T06:19:12;20.00;99.90
41838;DHT22;27511;52.042;5.178;2023-10-09T06:21:38;20.00;99.90
41838;DHT22;27511;52.042;5.178;2023-10-09T06:24:13;20.00;99.90
41838;DHT22;27511;52.042;5.178;2023-10-09T06:26:43;20.00;99.90
41838;DHT22;27511;52.042;5.178;2023-10-09T06:29:30;20.00;99.90
41838;DHT22;27511;52.042;5.178;2023-10-09T06:32:08;20.00;99.90
41838;DHT22;27511;52.042;5.178;2023-10-09T06:34:58;20.00;99.90
41838;DHT22;27511;52.042;5.178;2023-10-09T06:37:44;20.00;99.90
41838;DHT22;27511;52.042;5.178;2023-10-09T06:40:36;20.10;99.90
41838;DHT22;27511;52.042;5.178;2023-10-09T06:43:17;20.00;99.90
41838;DHT22;27511;52.042;5.178;2023-10-09T06:45:56;20.00;99.90
41838;DHT22;27511;52.042;5.178;2023-10-09T06:48:41;20.00;99.90
41838;DHT22;27511;52.042;5.178;2023-10-09T06:51:12;20.00;99.90
41838;DHT22;27511;52.042;5.178;2023-10-09T06:53:53;20.00;99.90
41838;DHT22;27511;52.042;5.178;2023-10-09T06:56:27;20.00;99.90
41838;DHT22;27511;52.042;5.178;2023-10-09T06:58:55;20.10;99.90
41838;DHT22;27511;52.042;5.178;2023-10-09T07:01:23;20.10;99.90
41838;DHT22;27511;52.042;5.178;2023-10-09T07:03:56;20.20;99.90
41838;DHT22;27511;52.042;5.178;2023-10-09T07:06:48;20.20;99.90
41838;DHT22;27511;52.042;5.178;2023-10-09T07:09:16;20.20;99.90
41838;DHT22;27511;52.042;5.178;2023-10-09T07:11:51;20.20;99.90
41838;DHT22;27511;52.042;5.178;2023-10-09T07:14:19;20.20;99.90
41838;DHT22;27511;52.042;5.178;2023-10-09T07:17:04;20.30;99.90
41838;DHT22;27511;52.042;5.178;2023-10-09T07:19:41;20.30;99.90
41838;DHT22;27511;52.042;5.178;2023-10-09T07:22:07;20.30;99.90
41838;DHT22;27511;52.042;5.178;2023-10-09T07:27:37;20.40;99.90
41838;DHT22;27511;52.042;5.178;2023-10-09T07:30:10;20.30;99.90
41838;DHT22;27511;52.042;5.178;2023-10-09T07:33:02;20.30;99.90
41838;DHT22;27511;52.042;5.178;2023-10-09T07:35:47;20.40;99.90
41838;DHT22;27511;52.042;5.178;2023-10-09T07:38:17;20.40;99.90
41838;DHT22;27511;52.042;5.178;2023-10-09T07:40:51;20.40;99.90
41838;DHT22;27511;52.042;5.178;2023-10-09T07:43:36;20.40;99.90
41838;DHT22;27511;52.042;5.178;2023-10-09T07:46:09;20.50;99.90
41838;DHT22;27511;52.042;5.178;2023-10-09T07:48:55;20.60;99.90
41838;DHT22;27511;52.042;5.178;2023-10-09T07:51:21;20.40;99.90
41838;DHT22;27511;52.042;5.178;2023-10-09T07:53:52;20.50;99.90
41838;DHT22;27511;52.042;5.178;2023-10-09T07:56:33;20.50;99.90
41838;DHT22;27511;52.042;5.178;2023-10-09T07:59:07;20.50;99.90
41838;DHT22;27511;52.042;5.178;2023-10-09T08:01:50;20.60;99.90
41838;DHT22;27511;52.042;5.178;2023-10-09T08:04:21;20.60;99.90
41838;DHT22;27511;52.042;5.178;2023-10-09T08:07:06;20.60;99.90
41838;DHT22;27511;52.042;5.178;2023-10-09T08:09:33;20.70;99.90
41838;DHT22;27511;52.042;5.178;2023-10-09T08:12:27;20.70;99.90
41838;DHT22;27511;52.042;5.178;2023-10-09T08:15:06;20.70;99.90
41838;DHT22;27511;52.042;5.178;2023-10-09T08:17:48;20.70;99.90
41838;DHT22;27511;52.042;5.178;2023-10-09T08:20:26;20.80;99.90
41838;DHT22;27511;52.042;5.178;2023-10-09T08:22:52;20.80;99.90
41838;DHT22;27511;52.042;5.178;2023-10-09T08:25:21;20.80;99.90
41838;DHT22;27511;52.042;5.178;2023-10-09T08:28:00;20.90;99.90
41838;DHT22;27511;52.042;5.178;2023-10-09T08:30:55;21.00;99.90
41838;DHT22;27511;52.042;5.178;2023-10-09T08:33:21;21.00;99.90
41838;DHT22;27511;52.042;5.178;2023-10-09T08:35:54;21.00;99.90
41838;DHT22;27511;52.042;5.178;2023-10-09T08:38:33;21.10;99.90
41838;DHT22;27511;52.042;5.178;2023-10-09T08:41:12;21.20;99.90
41838;DHT22;27511;52.042;5.178;2023-10-09T08:43:53;21.20;99.90
41838;DHT22;27511;52.042;5.178;2023-10-09T08:46:24;21.20;99.90
41838;DHT22;27511;52.042;5.178;2023-10-09T08:48:52;21.30;99.90
41838;DHT22;27511;52.042;5.178;2023-10-09T08:51:19;21.30;99.90
41838;DHT22;27511;52.042;5.178;2023-10-09T08:53:46;21.20;99.90
41838;DHT22;27511;52.042;5.178;2023-10-09T08:56:21;21.20;99.90
41838;DHT22;27511;52.042;5.178;2023-10-09T08:58:53;21.30;99.90
41838;DHT22;27511;52.042;5.178;2023-10-09T09:01:20;21.40;99.90
41838;DHT22;27511;52.042;5.178;2023-10-09T09:03:47;21.40;99.90
41838;DHT22;27511;52.042;5.178;2023-10-09T09:06:13;21.40;99.90
41838;DHT22;27511;52.042;5.178;2023-10-09T09:08:40;21.50;99.90
41838;DHT22;27511;52.042;5.178;2023-10-09T09:11:16;21.50;99.90
41838;DHT22;27511;52.042;5.178;2023-10-09T09:16:34;21.40;99.90
41838;DHT22;27511;52.042;5.178;2023-10-09T09:19:06;21.50;99.90
41838;DHT22;27511;52.042;5.178;2023-10-09T09:21:37;21.40;99.90
41838;DHT22;27511;52.042;5.178;2023-10-09T09:24:13;21.40;99.90
41838;DHT22;27511;52.042;5.178;2023-10-09T09:26:56;21.40;99.90
41838;DHT22;27511;52.042;5.178;2023-10-09T09:29:46;21.40;99.90
41838;DHT22;27511;52.042;5.178;2023-10-09T09:32:28;21.60;99.90
41838;DHT22;27511;52.042;5.178;2023-10-09T09:35:04;21.60;99.90
41838;DHT22;27511;52.042;5.178;2023-10-09T09:37:34;21.70;99.90
41838;DHT22;27511;52.042;5.178;2023-10-09T09:40:09;21.60;99.90
41838;DHT22;27511;52.042;5.178;2023-10-09T09:42:56;21.70;99.90
41838;DHT22;27511;52.042;5.178;2023-10-09T09:45:23;21.60;99.90
41838;DHT22;27511;52.042;5.178;2023-10-09T09:47:50;21.60;99.90
41838;DHT22;27511;52.042;5.178;2023-10-09T09:50:18;21.70;99.90
41838;DHT22;27511;52.042;5.178;2023-10-09T09:52:55;21.80;99.90
41838;DHT22;27511;52.042;5.178;2023-10-09T09:55:24;21.80;99.90
41838;DHT22;27511;52.042;5.178;2023-10-09T09:57:56;21.80;99.90
41838;DHT22;27511;52.042;5.178;2023-10-09T10:00:25;21.70;99.90
41838;DHT22;27511;52.042;5.178;2023-10-09T10:03:42;21.70;99.90
41838;DHT22;27511;52.042;5.178;2023-10-09T10:06:00;21.80;99.90
41838;DHT22;27511;52.042;5.178;2023-10-09T10:08:31;21.80;99.90
41838;DHT22;27511;52.042;5.178;2023-10-09T10:10:58;21.90;99.90
41838;DHT22;27511;52.042;5.178;2023-10-09T10:16:12;22.00;99.90
41838;DHT22;27511;52.042;5.178;2023-10-09T10:21:26;22.00;99.90
41838;DHT22;27511;52.042;5.178;2023-10-09T10:23:58;22.00;99.90
41838;DHT22;27511;52.042;5.178;2023-10-09T10:26:35;22.00;99.90
41838;DHT22;27511;52.042;5.178;2023-10-09T10:29:17;21.80;99.90
41838;DHT22;27511;52.042;5.178;2023-10-09T10:32:01;21.70;99.90
41838;DHT22;27511;52.042;5.178;2023-10-09T10:37:43;21.80;99.90
41838;DHT22;27511;52.042;5.178;2023-10-09T10:40:28;21.90;99.90
41838;DHT22;27511;52.042;5.178;2023-10-09T10:43:15;21.90;99.90
41838;DHT22;27511;52.042;5.178;2023-10-09T10:46:14;21.80;99.90
41838;DHT22;27511;52.042;5.178;2023-10-09T10:48:43;21.90;99.90
41838;DHT22;27511;52.042;5.178;2023-10-09T10:51:14;22.00;99.90
41838;DHT22;27511;52.042;5.178;2023-10-09T10:53:54;22.10;99.90
41838;DHT22;27511;52.042;5.178;2023-10-09T10:56:24;22.10;99.90
41838;DHT22;27511;52.042;5.178;2023-10-09T10:59:00;22.00;99.90
41838;DHT22;27511;52.042;5.178;2023-10-09T11:01:35;22.10;99.90
41838;DHT22;27511;52.042;5.178;2023-10-09T11:04:27;22.10;99.90
41838;DHT22;27511;52.042;5.178;2023-10-09T11:07:13;22.30;99.90
41838;DHT22;27511;52.042;5.178;2023-10-09T11:09:52;22.10;99.90
41838;DHT22;27511;52.042;5.178;2023-10-09T11:15:13;22.00;99.90
41838;DHT22;27511;52.042;5.178;2023-10-09T11:18:04;22.00;99.90
41838;DHT22;27511;52.042;5.178;2023-10-09T11:20:53;21.90;99.90
41838;DHT22;27511;52.042;5.178;2023-10-09T11:23:42;21.90;99.90
41838;DHT22;27511;52.042;5.178;2023-10-09T11:26:17;21.90;99.90
41838;DHT22;27511;52.042;5.178;2023-10-09T11:29:25;22.00;99.90
41838;DHT22;27511;52.042;5.178;2023-10-09T11:32:03;22.20;99.90
41838;DHT22;27511;52.042;5.178;2023-10-09T11:34:33;22.20;99.90
41838;DHT22;27511;52.042;5.178;2023-10-09T11:39:31;22.40;99.90
41838;DHT22;27511;52.042;5.178;2023-10-09T11:42:05;22.40;99.90
41838;DHT22;27511;52.042;5.178;2023-10-09T11:44:49;22.40;99.90
41838;DHT22;27511;52.042;5.178;2023-10-09T11:47:20;22.50;99.90
41838;DHT22;27511;52.042;5.178;2023-10-09T11:49:55;22.60;99.90
41838;DHT22;27511;52.042;5.178;2023-10-09T11:52:24;22.70;99.90
41838;DHT22;27511;52.042;5.178;2023-10-09T11:55:04;22.60;99.90
41838;DHT22;27511;52.042;5.178;2023-10-09T11:57:32;22.60;99.90
41838;DHT22;27511;52.042;5.178;2023-10-09T11:59:59;22.70;99.90
41838;DHT22;27511;52.042;5.178;2023-10-09T12:02:36;22.70;99.90
41838;DHT22;27511;52.042;5.178;2023-10-09T12:05:10;22.60;99.90
41838;DHT22;27511;52.042;5.178;2023-10-09T12:07:48;22.70;99.90
41838;DHT22;27511;52.042;5.178;2023-10-09T12:10:21;22.70;99.90
41838;DHT22;27511;52.042;5.178;2023-10-09T12:12:54;22.70;99.90
41838;DHT22;27511;52.042;5.178;2023-10-09T12:15:23;22.70;99.90
41838;DHT22;27511;52.042;5.178;2023-10-09T12:17:49;22.60;99.90
41838;DHT22;27511;52.042;5.178;2023-10-09T12:20:16;22.80;99.90
41838;DHT22;27511;52.042;5.178;2023-10-09T12:23:02;22.70;99.90
41838;DHT22;27511;52.042;5.178;2023-10-09T12:25:31;22.60;99.90
41838;DHT22;27511;52.042;5.178;2023-10-09T12:28:02;22.70;99.90
41838;DHT22;27511;52.042;5.178;2023-10-09T12:30:31;22.80;99.90
41838;DHT22;27511;52.042;5.178;2023-10-09T12:33:04;22.70;99.90
41838;DHT22;27511;52.042;5.178;2023-10-09T12:35:36;22.80;99.90
41838;DHT22;27511;52.042;5.178;2023-10-09T12:38:02;22.80;99.90
41838;DHT22;27511;52.042;5.178;2023-10-09T12:40:28;22.80;99.90
41838;DHT22;27511;52.042;5.178;2023-10-09T12:42:57;22.70;99.90
41838;DHT22;27511;52.042;5.178;2023-10-09T12:45:26;22.70;99.90
41838;DHT22;27511;52.042;5.178;2023-10-09T12:47:53;22.60;99.90
41838;DHT22;27511;52.042;5.178;2023-10-09T12:50:19;22.70;99.90
41838;DHT22;27511;52.042;5.178;2023-10-09T12:52:56;22.80;99.90
41838;DHT22;27511;52.042;5.178;2023-10-09T12:55:27;23.00;99.90
41838;DHT22;27511;52.042;5.178;2023-10-09T12:57:59;23.00;99.90
41838;DHT22;27511;52.042;5.178;2023-10-09T13:00:26;23.10;99.90
41838;DHT22;27511;52.042;5.178;2023-10-09T13:02:52;23.10;99.90
41838;DHT22;27511;52.042;5.178;2023-10-09T13:05:18;23.10;99.90
41838;DHT22;27511;52.042;5.178;2023-10-09T13:07:53;23.10;99.90
41838;DHT22;27511;52.042;5.178;2023-10-09T13:10:20;23.10;99.90
41838;DHT22;27511;52.042;5.178;2023-10-09T13:12:49;23.10;99.90
41838;DHT22;27511;52.042;5.178;2023-10-09T13:15:21;22.90;99.90
41838;DHT22;27511;52.042;5.178;2023-10-09T13:17:46;23.00;99.90
41838;DHT22;27511;52.042;5.178;2023-10-09T13:20:12;22.80;99.90
41838;DHT22;27511;52.042;5.178;2023-10-09T13:22:43;22.70;99.90
41838;DHT22;27511;52.042;5.178;2023-10-09T13:25:11;22.80;99.90
41838;DHT22;27511;52.042;5.178;2023-10-09T13:27:45;22.80;99.90
41838;DHT22;27511;52.042;5.178;2023-10-09T13:30:17;22.80;99.90
41838;DHT22;27511;52.042;5.178;2023-10-09T13:32:48;22.80;99.90
41838;DHT22;27511;52.042;5.178;2023-10-09T13:35:18;22.80;99.90
41838;DHT22;27511;52.042;5.178;2023-10-09T13:37:45;22.70;99.90
41838;DHT22;27511;52.042;5.178;2023-10-09T13:40:20;22.80;99.90
41838;DHT22;27511;52.042;5.178;2023-10-09T13:42:53;22.80;99.90
41838;DHT22;27511;52.042;5.178;2023-10-09T13:45:30;22.80;99.90
41838;DHT22;27511;52.042;5.178;2023-10-09T13:47:57;22.60;99.90
41838;DHT22;27511;52.042;5.178;2023-10-09T13:50:26;22.60;99.90
41838;DHT22;27511;52.042;5.178;2023-10-09T13:52:58;22.80;99.90
41838;DHT22;27511;52.042;5.178;2023-10-09T13:55:24;22.90;99.90
41838;DHT22;27511;52.042;5.178;2023-10-09T13:57:57;22.90;99.90
41838;DHT22;27511;52.042;5.178;2023-10-09T14:00:23;23.00;99.90
41838;DHT22;27511;52.042;5.178;2023-10-09T14:03:07;23.00;99.90
41838;DHT22;27511;52.042;5.178;2023-10-09T14:05:44;22.90;99.90
41838;DHT22;27511;52.042;5.178;2023-10-09T14:08:23;23.00;99.90
41838;DHT22;27511;52.042;5.178;2023-10-09T14:10:49;23.00;99.90
41838;DHT22;27511;52.042;5.178;2023-10-09T14:13:16;23.00;99.90
41838;DHT22;27511;52.042;5.178;2023-10-09T14:15:42;22.90;99.90
41838;DHT22;27511;52.042;5.178;2023-10-09T14:18:08;23.10;99.90
41838;DHT22;27511;52.042;5.178;2023-10-09T14:20:40;23.20;99.90
41838;DHT22;27511;52.042;5.178;2023-10-09T14:23:07;23.30;99.90
41838;DHT22;27511;52.042;5.178;2023-10-09T14:25:36;23.30;99.90
41838;DHT22;27511;52.042;5.178;2023-10-09T14:28:09;23.30;99.90
41838;DHT22;27511;52.042;5.178;2023-10-09T14:30:35;23.30;99.90
41838;DHT22;27511;52.042;5.178;2023-10-09T14:33:11;23.30;99.90
41838;DHT22;27511;52.042;5.178;2023-10-09T14:35:39;23.40;99.90
41838;DHT22;27511;52.042;5.178;2023-10-09T14:38:05;23.40;99.90
41838;DHT22;27511;52.042;5.178;2023-10-09T14:40:43;23.40;99.90
41838;DHT22;27511;52.042;5.178;2023-10-09T14:43:09;23.30;99.90
41838;DHT22;27511;52.042;5.178;2023-10-09T14:45:45;23.20;99.90
41838;DHT22;27511;52.042;5.178;2023-10-09T14:48:16;23.10;99.90
41838;DHT22;27511;52.042;5.178;2023-10-09T14:50:52;23.10;99.90
41838;DHT22;27511;52.042;5.178;2023-10-09T14:53:30;23.20;99.90
41838;DHT22;27511;52.042;5.178;2023-10-09T14:55:56;23.20;99.90
41838;DHT22;27511;52.042;5.178;2023-10-09T14:58:22;23.20;99.90
41838;DHT22;27511;52.042;5.178;2023-10-09T15:00:54;23.20;99.90
41838;DHT22;27511;52.042;5.178;2023-10-09T15:03:21;23.30;99.90
41838;DHT22;27511;52.042;5.178;2023-10-09T15:05:47;23.20;99.90
41838;DHT22;27511;52.042;5.178;2023-10-09T15:08:13;23.10;99.90
41838;DHT22;27511;52.042;5.178;2023-10-09T15:13:13;23.10;99.90
41838;DHT22;27511;52.042;5.178;2023-10-09T15:15:43;23.10;99.90
41838;DHT22;27511;52.042;5.178;2023-10-09T15:18:09;23.10;99.90
41838;DHT22;27511;52.042;5.178;2023-10-09T15:20:38;23.20;99.90
41838;DHT22;27511;52.042;5.178;2023-10-09T15:23:05;23.10;99.90
41838;DHT22;27511;52.042;5.178;2023-10-09T15:25:31;23.10;99.90
41838;DHT22;27511;52.042;5.178;2023-10-09T15:27:56;23.10;99.90
41838;DHT22;27511;52.042;5.178;2023-10-09T15:30:23;23.20;99.90
41838;DHT22;27511;52.042;5.178;2023-10-09T15:32:48;23.30;99.90
41838;DHT22;27511;52.042;5.178;2023-10-09T15:35:14;23.30;99.90
41838;DHT22;27511;52.042;5.178;2023-10-09T15:37:41;23.20;99.90
41838;DHT22;27511;52.042;5.178;2023-10-09T15:40:07;23.20;99.90
41838;DHT22;27511;52.042;5.178;2023-10-09T15:42:43;23.30;99.90
41838;DHT22;27511;52.042;5.178;2023-10-09T15:45:09;23.30;99.90
41838;DHT22;27511;52.042;5.178;2023-10-09T15:47:35;23.20;99.90
41838;DHT22;27511;52.042;5.178;2023-10-09T15:50:02;23.00;99.90
41838;DHT22;27511;52.042;5.178;2023-10-09T15:52:29;23.00;99.90
41838;DHT22;27511;52.042;5.178;2023-10-09T15:54:54;23.00;99.90
41838;DHT22;27511;52.042;5.178;2023-10-09T15:57:20;22.90;99.90
41838;DHT22;27511;52.042;5.178;2023-10-09T15:59:47;22.90;99.90
41838;DHT22;27511;52.042;5.178;2023-10-09T16:02:15;22.90;99.90
41838;DHT22;27511;52.042;5.178;2023-10-09T16:04:42;22.80;99.90
41838;DHT22;27511;52.042;5.178;2023-10-09T16:07:08;22.80;99.90
41838;DHT22;27511;52.042;5.178;2023-10-09T16:09:35;22.70;99.90
41838;DHT22;27511;52.042;5.178;2023-10-09T16:12:03;22.70;99.90
41838;DHT22;27511;52.042;5.178;2023-10-09T16:14:30;22.80;99.90
41838;DHT22;27511;52.042;5.178;2023-10-09T16:16:56;22.60;99.90
41838;DHT22;27511;52.042;5.178;2023-10-09T16:19:21;22.60;99.90
41838;DHT22;27511;52.042;5.178;2023-10-09T16:21:50;22.50;99.90
41838;DHT22;27511;52.042;5.178;2023-10-09T16:24:17;22.50;99.90
41838;DHT22;27511;52.042;5.178;2023-10-09T16:26:45;22.40;99.90
41838;DHT22;27511;52.042;5.178;2023-10-09T16:29:16;22.30;99.90
41838;DHT22;27511;52.042;5.178;2023-10-09T16:31:42;22.30;99.90
41838;DHT22;27511;52.042;5.178;2023-10-09T16:34:08;22.30;99.90